Airfield :
LOGIN :

Register | Disclaimer

   EN    FR    IT 

 










Legend :    VFR   Marginal VFR   IFR   Intensive IFR   Very Intensive IFR
Visi :
Ceiling :
>= 8 km
>= 3000ft
5 to 8 km
1000 to 3000 ft
1500m to 5 km
500 to 1000 ft
800 to 1500m
200 to 500 ft
< 800m
< 200 ft
Symbols :   Thunderstorms  Fog  Heavy snow  Heavy precipitations  Wind > 20 kt
SIGMETs :     Misc.  Thunderstorms  Icing  Turbulence  Mountain Waves  Volcanic Ashes






- Airport Elevation : 53 ft
- IATA code : AGP


LEMG - Malaga

CURRENT METAR :
  • 181200Z 28010KT 230V310 CAVOK 27/14 Q1017 NOSIG

EXPIRED METARs :
  • 181130Z 27012KT 230V310 CAVOK 27/14 Q1017 NOSIG
  • 181100Z 27010KT 230V300 CAVOK 27/15 Q1018 NOSIG
  • 181030Z 27010KT 230V300 CAVOK 26/14 Q1018 NOSIG
  • 181000Z 27011KT CAVOK 25/13 Q1018 NOSIG
  • 180930Z 28011KT CAVOK 24/14 Q1018 NOSIG

TAF TAF LEMG
Valid from the 18 at 12:00 until the 19 at 12:00 UTC


181100Z 1812/1912 28009KT 9999 FEW040 TX29/1814Z TN17/1906Z
PROB40
TEMPO 1815/1820 10006KT



MET'MAP, your aeronautical weather chart ! - Copyright ORBIFLY December 2007 - Disclaimer

ORBIFLY MET'MAP TEAM :

Programming & Development : Alexandra Zaïnal
Concept & Development : Baudouin d'Aumeries
Co-Development & Prog : Marc-Olivier Méhu
Technical & hardware support : Manuel Goepfert

Contact : metmap@orbifly.com




SOURCES & CREDITS :

   NOAA